createdAt,value
2023-02-16T00:01:25.303Z,2.86
2023-02-16T00:03:54.814Z,2.83
2023-02-16T00:06:24.932Z,2.75
2023-02-16T00:08:54.854Z,2.75
2023-02-16T00:11:46.134Z,2.72
2023-02-16T00:14:15.512Z,2.70
2023-02-16T00:16:46.368Z,2.68
2023-02-16T00:19:20.125Z,2.67
2023-02-16T00:21:50.901Z,2.64
2023-02-16T00:24:19.548Z,2.64
2023-02-16T00:26:48.716Z,2.65
2023-02-16T00:29:21.790Z,2.63
2023-02-16T00:31:50.467Z,2.62
2023-02-16T00:34:32.111Z,2.61
2023-02-16T00:37:06.895Z,2.58
2023-02-16T00:39:35.915Z,2.58
2023-02-16T00:42:06.754Z,2.57
2023-02-16T00:44:37.381Z,2.56
2023-02-16T00:47:16.888Z,2.56
2023-02-16T00:49:45.225Z,2.53
2023-02-16T00:52:29.861Z,2.54
2023-02-16T00:54:58.049Z,2.51
2023-02-16T00:57:27.064Z,2.49
2023-02-16T01:00:01.845Z,2.48
2023-02-16T01:02:30.636Z,2.46
2023-02-16T01:04:59.052Z,2.43
2023-02-16T01:07:45.880Z,2.46
2023-02-16T01:10:31.516Z,2.44
2023-02-16T01:12:59.852Z,2.43
2023-02-16T01:15:28.111Z,2.45
2023-02-16T01:17:56.239Z,2.42
2023-02-16T01:20:25.852Z,2.39
2023-02-16T01:22:55.618Z,2.35
2023-02-16T01:25:23.806Z,2.30
2023-02-16T01:27:51.921Z,2.29
2023-02-16T01:30:22.209Z,2.24
2023-02-16T01:32:51.915Z,2.22
2023-02-16T01:35:23.880Z,2.16
2023-02-16T01:37:52.210Z,2.12
2023-02-16T01:40:31.984Z,2.08
2023-02-16T01:43:05.161Z,2.10
2023-02-16T01:45:36.656Z,2.05
2023-02-16T01:48:07.096Z,2.06
2023-02-16T01:50:45.448Z,2.03
2023-02-16T01:53:22.136Z,2.00
2023-02-16T01:55:58.859Z,1.97
2023-02-16T01:58:36.880Z,1.96
2023-02-16T02:01:43.165Z,1.95
2023-02-16T02:04:46.110Z,1.96
2023-02-16T02:07:23.650Z,1.94
2023-02-16T02:10:01.399Z,1.92
2023-02-16T02:12:36.446Z,1.88
2023-02-16T02:15:04.769Z,1.87
2023-02-16T02:17:33.419Z,1.84
2023-02-16T02:20:12.456Z,1.82
2023-02-16T02:23:27.838Z,1.77
2023-02-16T02:29:36.821Z,1.73
2023-02-16T02:32:14.810Z,1.72
2023-02-16T02:34:55.987Z,1.74
2023-02-16T02:37:35.314Z,1.71
2023-02-16T02:40:09.808Z,1.69
2023-02-16T02:42:45.141Z,1.69
2023-02-16T02:45:20.202Z,1.69
2023-02-16T02:47:49.491Z,1.69
2023-02-16T02:50:38.269Z,1.69
2023-02-16T02:53:09.889Z,1.71
2023-02-16T02:55:59.839Z,1.74
2023-02-16T02:58:48.305Z,1.76
2023-02-16T03:01:20.467Z,1.77
2023-02-16T03:03:52.380Z,1.77
2023-02-16T03:06:25.273Z,1.78
2023-02-16T03:08:58.967Z,1.81
2023-02-16T03:11:48.237Z,1.81
2023-02-16T03:14:19.363Z,1.86
2023-02-16T03:17:11.090Z,1.87
2023-02-16T03:19:58.963Z,1.88
2023-02-16T03:22:44.669Z,1.89
2023-02-16T03:25:30.301Z,1.89
2023-02-16T03:28:19.160Z,1.88
2023-02-16T03:30:48.894Z,1.89
2023-02-16T03:33:19.010Z,1.88
2023-02-16T03:35:47.550Z,1.87
2023-02-16T03:38:15.646Z,1.88
2023-02-16T03:40:49.012Z,1.86
2023-02-16T03:43:17.152Z,1.84
2023-02-16T03:45:47.785Z,1.82
2023-02-16T03:48:15.863Z,1.84
2023-02-16T03:50:45.464Z,1.94
2023-02-16T03:53:13.553Z,1.90
2023-02-16T03:55:43.736Z,1.95
2023-02-16T03:58:16.133Z,1.94
2023-02-16T04:00:44.756Z,1.92
2023-02-16T04:03:13.445Z,1.88
2023-02-16T04:05:41.592Z,1.84
2023-02-16T04:08:13.735Z,1.80
2023-02-16T04:10:41.847Z,1.76
2023-02-16T04:13:09.318Z,1.72
2023-02-16T04:15:37.667Z,1.71
2023-02-16T04:18:06.005Z,1.74
2023-02-16T04:20:35.103Z,1.74
2023-02-16T04:23:04.350Z,1.74
2023-02-16T04:25:36.759Z,1.71
2023-02-16T04:28:05.083Z,1.68
2023-02-16T04:30:33.465Z,1.67
2023-02-16T04:33:01.647Z,1.67
2023-02-16T04:35:29.630Z,1.70
2023-02-16T04:37:57.670Z,1.73
2023-02-16T04:40:25.706Z,1.73
2023-02-16T04:42:55.076Z,1.76
2023-02-16T04:45:23.144Z,1.79
2023-02-16T04:47:51.200Z,1.81
2023-02-16T04:50:19.303Z,1.83
2023-02-16T04:52:47.324Z,1.86
2023-02-16T04:55:15.488Z,1.89
2023-02-16T04:57:43.626Z,1.90
2023-02-16T05:00:15.234Z,1.94
2023-02-16T05:02:43.343Z,1.96
2023-02-16T05:05:11.513Z,1.98
2023-02-16T05:07:39.563Z,2.01
2023-02-16T05:10:08.682Z,2.05
2023-02-16T05:12:54.326Z,2.08
2023-02-16T05:15:23.777Z,2.10
2023-02-16T05:17:51.848Z,2.15
2023-02-16T05:20:20.013Z,2.20
2023-02-16T05:22:50.292Z,2.23
2023-02-16T05:25:18.454Z,2.26
2023-02-16T05:27:46.501Z,2.30
2023-02-16T05:30:15.832Z,2.34
2023-02-16T05:32:45.262Z,2.38
2023-02-16T05:35:13.335Z,2.43
2023-02-16T05:37:42.773Z,2.51
2023-02-16T05:40:12.025Z,2.72
2023-02-16T05:42:40.037Z,2.72
2023-02-16T05:45:08.640Z,2.80
2023-02-16T05:47:36.765Z,2.79
2023-02-16T05:50:07.293Z,2.81
2023-02-16T05:52:35.440Z,2.87
2023-02-16T05:55:03.496Z,2.90
2023-02-16T05:57:34.864Z,2.95
2023-02-16T06:00:03.434Z,2.96
2023-02-16T06:02:31.751Z,3.00
2023-02-16T06:04:59.838Z,3.14
2023-02-16T06:07:29.283Z,3.22
2023-02-16T06:09:57.416Z,3.20
2023-02-16T06:12:25.413Z,3.20
2023-02-16T06:14:53.670Z,3.24
2023-02-16T06:17:21.714Z,3.39
2023-02-16T06:19:49.870Z,3.35
2023-02-16T06:22:18.029Z,3.33
2023-02-16T06:24:47.451Z,3.33
2023-02-16T06:27:15.549Z,3.41
2023-02-16T06:29:43.582Z,3.46
2023-02-16T06:32:11.857Z,3.42
2023-02-16T06:34:39.967Z,3.42
2023-02-16T06:37:07.944Z,3.42
2023-02-16T06:39:36.011Z,3.41
2023-02-16T06:42:05.637Z,3.44
2023-02-16T06:44:33.698Z,3.46
2023-02-16T06:47:01.718Z,3.47
2023-02-16T06:49:30.469Z,3.48
2023-02-16T06:51:58.656Z,3.49
2023-02-16T06:54:26.702Z,3.52
2023-02-16T06:56:54.733Z,3.55
2023-02-16T06:59:24.227Z,3.56
2023-02-16T07:01:52.471Z,3.60
2023-02-16T07:04:20.516Z,3.63
2023-02-16T07:06:48.680Z,3.65
2023-02-16T07:09:16.743Z,3.71
2023-02-16T07:11:47.559Z,3.73
2023-02-16T07:14:16.008Z,3.76
2023-02-16T07:16:45.468Z,3.77
2023-02-16T07:19:13.572Z,3.81
2023-02-16T07:21:41.757Z,3.88
2023-02-16T07:24:09.819Z,4.02
2023-02-16T07:26:38.739Z,4.01
2023-02-16T07:29:06.772Z,4.05
2023-02-16T07:31:34.900Z,4.05
2023-02-16T07:34:04.347Z,4.08
2023-02-16T07:36:35.483Z,4.12
2023-02-16T07:39:04.129Z,4.14
2023-02-16T07:41:32.219Z,4.18
2023-02-16T07:44:00.235Z,4.22
2023-02-16T07:46:28.466Z,4.28
2023-02-16T07:48:56.547Z,4.29
2023-02-16T07:51:28.179Z,4.36
2023-02-16T07:53:56.470Z,4.34
2023-02-16T07:56:26.731Z,4.36
2023-02-16T07:58:55.445Z,4.49
2023-02-16T08:01:27.371Z,4.48
2023-02-16T08:03:55.583Z,4.51
2023-02-16T08:06:25.392Z,4.55
2023-02-16T08:08:53.653Z,4.59
2023-02-16T08:11:23.987Z,4.64
2023-02-16T08:13:52.713Z,4.69
2023-02-16T08:16:22.332Z,4.74
2023-02-16T08:18:52.199Z,4.80
2023-02-16T08:21:23.683Z,4.85
2023-02-16T08:23:57.408Z,4.93
2023-02-16T08:26:28.886Z,4.94
2023-02-16T08:28:59.007Z,5.01
2023-02-16T08:31:30.976Z,5.07
2023-02-16T08:34:01.732Z,5.11
2023-02-16T08:36:32.584Z,5.20
2023-02-16T08:39:04.200Z,5.25
2023-02-16T08:41:34.116Z,5.27
2023-02-16T08:44:04.431Z,5.25
2023-02-16T08:46:34.256Z,5.28
2023-02-16T08:49:03.178Z,5.31
2023-02-16T08:51:34.710Z,5.33
2023-02-16T08:54:06.042Z,5.35
2023-02-16T08:56:34.508Z,5.36
2023-02-16T08:59:02.676Z,5.41
2023-02-16T09:01:30.917Z,5.48
2023-02-16T09:03:59.103Z,5.48
2023-02-16T09:06:27.543Z,5.47
2023-02-16T09:08:58.450Z,5.51
2023-02-16T09:11:32.336Z,5.55
2023-02-16T09:14:02.424Z,5.55
2023-02-16T09:16:33.865Z,5.62
2023-02-16T09:19:03.250Z,5.64
2023-02-16T09:21:33.440Z,5.66
2023-02-16T09:24:04.576Z,5.67
2023-02-16T09:26:37.042Z,5.80
2023-02-16T09:29:05.440Z,5.79
2023-02-16T09:31:35.679Z,5.81
2023-02-16T09:34:06.460Z,5.83
2023-02-16T09:36:35.357Z,5.88
2023-02-16T09:39:03.458Z,5.87
2023-02-16T09:41:42.453Z,5.91
2023-02-16T09:44:20.739Z,5.99
2023-02-16T09:46:50.521Z,5.96
2023-02-16T09:49:27.042Z,5.99
2023-02-16T09:52:03.658Z,6.03
2023-02-16T09:54:43.842Z,6.06
2023-02-16T09:57:22.302Z,6.08
2023-02-16T09:59:57.724Z,6.13
2023-02-16T10:02:38.739Z,6.14
2023-02-16T10:05:20.244Z,6.15
2023-02-16T10:08:07.788Z,6.19
2023-02-16T10:10:45.575Z,6.25
2023-02-16T10:13:25.127Z,6.29
2023-02-16T10:15:55.211Z,6.30
2023-02-16T10:18:29.822Z,6.38
2023-02-16T10:21:02.265Z,6.41
2023-02-16T10:23:46.573Z,6.43
2023-02-16T10:26:20.282Z,6.52
2023-02-16T10:28:51.882Z,6.55
2023-02-16T10:31:27.974Z,6.56
2023-02-16T10:34:18.135Z,6.59
2023-02-16T10:37:12.902Z,6.52
2023-02-16T10:39:46.159Z,6.58
2023-02-16T10:42:22.619Z,6.54
2023-02-16T10:44:59.348Z,6.59
2023-02-16T10:47:33.897Z,6.55
2023-02-16T10:50:02.138Z,6.55
2023-02-16T10:52:33.795Z,6.61
2023-02-16T10:55:02.732Z,6.63
2023-02-16T10:57:34.593Z,6.64
2023-02-16T11:00:08.350Z,6.68
2023-02-16T11:02:39.143Z,6.63
2023-02-16T11:05:32.307Z,6.58
2023-02-16T11:08:02.635Z,6.60
2023-02-16T11:10:40.201Z,6.65
2023-02-16T11:13:09.263Z,6.67
2023-02-16T11:15:40.584Z,6.57
2023-02-16T11:18:23.174Z,6.51
2023-02-16T11:20:56.093Z,6.52
2023-02-16T11:23:26.238Z,6.55
2023-02-16T11:25:57.099Z,6.50
2023-02-16T11:28:32.674Z,6.50
2023-02-16T11:31:11.186Z,6.52
2023-02-16T11:33:40.940Z,6.47
2023-02-16T11:36:22.109Z,6.50
2023-02-16T11:39:02.838Z,6.52
2023-02-16T11:41:33.539Z,6.51
2023-02-16T11:44:03.748Z,6.49
2023-02-16T11:46:40.905Z,6.55
2023-02-16T11:49:33.480Z,6.49
2023-02-16T11:52:02.508Z,6.48
2023-02-16T11:54:33.302Z,6.60
2023-02-16T11:57:09.454Z,6.58
2023-02-16T11:59:40.003Z,6.58
2023-02-16T12:02:37.937Z,6.60
2023-02-16T12:05:26.171Z,6.59
2023-02-16T12:08:11.041Z,6.58
2023-02-16T12:10:44.253Z,6.66
2023-02-16T12:13:21.357Z,6.62
2023-02-16T12:15:55.832Z,6.74
2023-02-16T12:18:37.843Z,6.80
2023-02-16T12:21:18.186Z,6.88
2023-02-16T12:23:58.911Z,7.03
2023-02-16T12:26:38.966Z,7.09
2023-02-16T12:29:25.983Z,7.09
2023-02-16T12:32:05.688Z,7.13
2023-02-16T12:34:48.754Z,7.23
2023-02-16T12:37:27.239Z,7.21
2023-02-16T12:40:02.206Z,7.25
2023-02-16T12:42:52.569Z,7.35
2023-02-16T12:45:23.758Z,7.41
2023-02-16T12:47:57.558Z,7.49
2023-02-16T12:50:30.609Z,7.60
2023-02-16T12:53:03.899Z,7.67
2023-02-16T12:55:36.991Z,7.87
2023-02-16T12:58:15.844Z,8.13
2023-02-16T13:00:48.650Z,8.33
2023-02-16T13:03:29.110Z,8.58
2023-02-16T13:06:08.641Z,8.53
2023-02-16T13:08:45.052Z,8.59
2023-02-16T13:11:20.922Z,8.53
2023-02-16T13:13:51.556Z,8.59
2023-02-16T13:16:30.640Z,8.54
2023-02-16T13:18:59.848Z,8.48
2023-02-16T13:22:02.460Z,8.57
2023-02-16T13:24:49.359Z,8.70
2023-02-16T13:27:30.151Z,8.91
2023-02-16T13:30:13.561Z,8.93
2023-02-16T13:33:20.214Z,9.07
2023-02-16T13:36:27.452Z,9.14
2023-02-16T13:39:22.123Z,9.07
2023-02-16T13:42:17.454Z,9.16
2023-02-16T13:44:50.636Z,9.23
2023-02-16T13:47:26.825Z,9.30
2023-02-16T13:49:58.837Z,9.29
2023-02-16T13:52:34.252Z,9.38
2023-02-16T13:55:06.956Z,9.40
2023-02-16T13:58:00.264Z,9.46
2023-02-16T14:00:30.061Z,9.41
2023-02-16T14:03:01.138Z,9.42
2023-02-16T14:05:38.041Z,9.39
2023-02-16T14:08:24.502Z,9.34
2023-02-16T14:11:10.882Z,9.41
2023-02-16T14:13:50.980Z,9.38
2023-02-16T14:16:34.176Z,9.47
2023-02-16T14:19:06.274Z,9.41
2023-02-16T14:21:39.967Z,9.40
2023-02-16T14:24:13.388Z,9.45
2023-02-16T14:26:59.410Z,9.44
2023-02-16T14:29:31.593Z,9.43
2023-02-16T14:32:06.548Z,9.39
2023-02-16T14:34:41.076Z,9.52
2023-02-16T14:37:31.734Z,9.60
2023-02-16T14:40:20.238Z,9.52
2023-02-16T14:42:53.940Z,9.55
2023-02-16T14:45:43.046Z,9.48
2023-02-16T14:48:28.650Z,9.47
2023-02-16T14:51:18.402Z,9.44
2023-02-16T14:54:23.206Z,9.51
2023-02-16T14:56:54.046Z,9.59
2023-02-16T14:59:32.884Z,9.58
2023-02-16T15:02:01.094Z,9.70
2023-02-16T15:04:30.284Z,9.80
2023-02-16T15:07:01.156Z,9.77
2023-02-16T15:09:32.192Z,9.79
2023-02-16T15:12:21.692Z,9.84
2023-02-16T15:14:53.808Z,9.78
2023-02-16T15:17:30.161Z,9.81
2023-02-16T15:20:04.674Z,9.83
2023-02-16T15:22:33.582Z,9.96
2023-02-16T15:25:04.443Z,9.86
2023-02-16T15:27:33.998Z,9.88
2023-02-16T15:30:22.441Z,9.82
2023-02-16T15:32:53.428Z,9.80
2023-02-16T15:35:28.523Z,9.79
2023-02-16T15:38:10.380Z,9.85
2023-02-16T15:40:38.732Z,9.82
2023-02-16T15:43:15.416Z,9.89
2023-02-16T15:45:50.298Z,9.88
2023-02-16T15:48:24.903Z,9.92
2023-02-16T15:51:01.759Z,9.99
2023-02-16T15:53:37.419Z,9.92
2023-02-16T15:56:21.560Z,9.89
2023-02-16T15:58:49.679Z,9.92
2023-02-16T16:01:31.528Z,9.95
2023-02-16T16:04:02.916Z,9.94
2023-02-16T16:06:39.485Z,9.93
2023-02-16T16:09:08.718Z,9.94
2023-02-16T16:11:37.879Z,9.96
2023-02-16T16:14:07.488Z,9.97
2023-02-16T16:16:37.855Z,9.95
2023-02-16T16:19:16.929Z,9.90
2023-02-16T16:21:51.440Z,9.92
2023-02-16T16:24:33.643Z,9.88
2023-02-16T16:27:04.729Z,9.86
2023-02-16T16:29:36.224Z,9.86
2023-02-16T16:32:07.564Z,9.85
2023-02-16T16:34:38.746Z,9.85
2023-02-16T16:37:08.513Z,9.87
2023-02-16T16:39:41.553Z,9.84
2023-02-16T16:42:23.636Z,9.81
2023-02-16T16:45:07.588Z,9.77
2023-02-16T16:47:40.142Z,9.77
2023-02-16T16:50:30.927Z,9.73
2023-02-16T16:52:59.258Z,9.60
2023-02-16T16:55:30.946Z,9.61
2023-02-16T16:58:00.464Z,9.63
2023-02-16T17:00:34.256Z,9.53
2023-02-16T17:03:05.235Z,9.43
2023-02-16T17:05:33.685Z,9.42
2023-02-16T17:08:01.800Z,9.40
2023-02-16T17:10:30.131Z,9.32
2023-02-16T17:13:00.952Z,9.27
2023-02-16T17:15:41.756Z,9.25
2023-02-16T17:18:16.684Z,9.23
2023-02-16T17:20:44.906Z,9.19
2023-02-16T17:23:13.408Z,9.12
2023-02-16T17:25:42.609Z,9.10
2023-02-16T17:28:14.881Z,9.10
2023-02-16T17:30:43.825Z,9.04
2023-02-16T17:33:13.794Z,9.03
2023-02-16T17:35:44.090Z,8.92
2023-02-16T17:38:14.633Z,8.92
2023-02-16T17:40:44.541Z,8.91
2023-02-16T17:43:14.601Z,8.88
2023-02-16T17:45:47.112Z,8.89
2023-02-16T17:48:19.965Z,8.86
2023-02-16T17:50:49.315Z,8.84
2023-02-16T17:53:19.066Z,8.83
2023-02-16T17:55:48.454Z,8.77
2023-02-16T17:58:17.298Z,8.79
2023-02-16T18:00:46.306Z,8.77
2023-02-16T18:03:14.846Z,8.76
2023-02-16T18:05:44.270Z,8.77
2023-02-16T18:08:13.263Z,8.82
2023-02-16T18:10:43.868Z,8.82
2023-02-16T18:13:12.809Z,8.75
2023-02-16T18:15:42.783Z,8.75
2023-02-16T18:18:10.991Z,8.71
2023-02-16T18:20:39.005Z,8.75
2023-02-16T18:23:08.597Z,8.78
2023-02-16T18:25:37.136Z,8.76
2023-02-16T18:28:05.399Z,8.72
2023-02-16T18:30:33.685Z,8.68
2023-02-16T18:33:01.843Z,8.76
2023-02-16T18:35:31.875Z,8.75
2023-02-16T18:38:00.142Z,8.76
2023-02-16T18:40:29.565Z,8.72
2023-02-16T18:42:58.458Z,8.74
2023-02-16T18:45:26.776Z,8.82
2023-02-16T18:47:57.348Z,8.79
2023-02-16T18:50:25.505Z,8.74
2023-02-16T18:52:56.444Z,8.74
2023-02-16T18:55:32.890Z,8.72
2023-02-16T18:58:03.185Z,8.71
2023-02-16T19:00:31.620Z,8.73
2023-02-16T19:02:59.754Z,8.79
2023-02-16T19:05:28.117Z,8.77
2023-02-16T19:07:56.255Z,8.72
2023-02-16T19:10:25.229Z,8.79
2023-02-16T19:12:53.566Z,8.73
2023-02-16T19:15:23.422Z,8.75
2023-02-16T19:17:51.637Z,8.77
2023-02-16T19:20:19.743Z,8.74
2023-02-16T19:22:48.210Z,8.73
2023-02-16T19:25:17.022Z,8.69
2023-02-16T19:27:47.413Z,8.76
2023-02-16T19:30:15.719Z,8.76
2023-02-16T19:32:45.227Z,8.73
2023-02-16T19:35:13.535Z,8.70
2023-02-16T19:37:41.568Z,8.63
2023-02-16T19:40:11.755Z,8.72
2023-02-16T19:42:40.983Z,8.72
2023-02-16T19:45:10.258Z,8.68
2023-02-16T19:47:38.264Z,8.67
2023-02-16T19:50:08.628Z,8.71
2023-02-16T19:52:36.755Z,8.73
2023-02-16T19:55:07.558Z,8.66
2023-02-16T19:57:35.584Z,8.62
2023-02-16T20:00:05.758Z,8.60
2023-02-16T20:02:36.172Z,8.61
2023-02-16T20:05:06.451Z,8.60
2023-02-16T20:07:37.255Z,8.64
2023-02-16T20:10:05.692Z,8.65
2023-02-16T20:12:33.675Z,8.58
2023-02-16T20:15:04.536Z,8.60
2023-02-16T20:17:32.582Z,8.61
2023-02-16T20:20:00.962Z,8.63
2023-02-16T20:22:29.042Z,8.60
2023-02-16T20:24:58.554Z,8.59
2023-02-16T20:27:29.659Z,8.60
2023-02-16T20:30:02.944Z,8.58
2023-02-16T20:32:31.391Z,8.56
2023-02-16T20:34:59.584Z,8.60
2023-02-16T20:37:27.859Z,8.62
2023-02-16T20:39:55.955Z,8.61
2023-02-16T20:42:25.594Z,8.67
2023-02-16T20:44:53.639Z,8.64
2023-02-16T20:47:21.651Z,8.59
2023-02-16T20:49:49.750Z,8.60
2023-02-16T20:52:20.295Z,8.62
2023-02-16T20:54:48.410Z,8.59
2023-02-16T20:57:26.417Z,8.58
2023-02-16T20:59:58.767Z,8.57
2023-02-16T21:02:26.829Z,8.58
2023-02-16T21:04:55.014Z,8.59
2023-02-16T21:07:23.038Z,8.59
2023-02-16T21:09:51.098Z,8.57
2023-02-16T21:12:19.179Z,8.61
2023-02-16T21:14:47.268Z,8.61
2023-02-16T21:17:16.723Z,8.58
2023-02-16T21:19:44.781Z,8.58
2023-02-16T21:22:12.837Z,8.63
2023-02-16T21:24:42.207Z,8.60
2023-02-16T21:27:10.760Z,8.63
2023-02-16T21:29:38.870Z,8.68
2023-02-16T21:32:07.317Z,8.66
2023-02-16T21:34:37.414Z,8.65
2023-02-16T21:37:05.573Z,8.75
2023-02-16T21:39:51.042Z,8.69
2023-02-16T21:42:19.060Z,8.65
2023-02-16T21:45:07.186Z,8.65
2023-02-16T21:47:52.712Z,8.66
2023-02-16T21:50:22.167Z,8.66
2023-02-16T21:52:50.224Z,8.67
2023-02-16T21:55:36.015Z,8.67
2023-02-16T21:58:07.888Z,8.68
2023-02-16T22:00:36.755Z,8.69
2023-02-16T22:03:05.812Z,8.68
2023-02-16T22:05:37.145Z,8.72
2023-02-16T22:08:05.896Z,8.70
2023-02-16T22:10:35.451Z,8.72
2023-02-16T22:13:03.562Z,8.74
2023-02-16T22:15:31.623Z,8.81
2023-02-16T22:17:59.633Z,8.76
2023-02-16T22:20:27.776Z,8.77
2023-02-16T22:22:57.229Z,8.71
2023-02-16T22:25:25.369Z,8.75
2023-02-16T22:27:53.381Z,8.78
2023-02-16T22:30:21.594Z,8.79
2023-02-16T22:32:51.221Z,8.79
2023-02-16T22:35:19.521Z,8.86
2023-02-16T22:37:47.575Z,8.83
2023-02-16T22:40:20.230Z,8.84
2023-02-16T22:42:51.025Z,8.81
2023-02-16T22:45:19.246Z,8.79
2023-02-16T22:47:47.246Z,8.81
2023-02-16T22:50:15.270Z,8.81
2023-02-16T22:52:43.319Z,8.87
2023-02-16T22:55:11.335Z,8.88
2023-02-16T22:57:41.126Z,8.86
2023-02-16T23:00:15.728Z,8.89
2023-02-16T23:02:44.031Z,8.86
2023-02-16T23:05:12.047Z,8.90
2023-02-16T23:07:40.373Z,8.88
2023-02-16T23:10:09.250Z,8.89
2023-02-16T23:12:37.344Z,8.87
2023-02-16T23:15:07.611Z,8.88
2023-02-16T23:17:36.329Z,8.94
2023-02-16T23:20:05.816Z,8.95
2023-02-16T23:22:34.254Z,8.95
2023-02-16T23:25:28.214Z,9.02
2023-02-16T23:27:56.419Z,8.93
2023-02-16T23:30:28.187Z,8.93
2023-02-16T23:32:56.254Z,8.95
2023-02-16T23:35:24.365Z,8.96
2023-02-16T23:37:54.592Z,8.95
2023-02-16T23:40:22.624Z,8.95
2023-02-16T23:42:53.709Z,8.96
2023-02-16T23:45:21.996Z,8.96
2023-02-16T23:47:51.377Z,8.94
2023-02-16T23:50:19.638Z,8.95
2023-02-16T23:52:47.893Z,8.95
2023-02-16T23:55:16.030Z,8.96
2023-02-16T23:57:44.165Z,8.95
